sensor_id;sensor_type;location;lat;lon;timestamp;temperature;humidity
7206;DHT22;3644;53.480;10.004;2023-05-10T00:02:07;15.50;99.90
7206;DHT22;3644;53.480;10.004;2023-05-10T00:04:33;15.40;99.90
7206;DHT22;3644;53.480;10.004;2023-05-10T00:06:58;15.30;99.90
7206;DHT22;3644;53.480;10.004;2023-05-10T00:09:24;15.30;99.90
7206;DHT22;3644;53.480;10.004;2023-05-10T00:11:49;15.30;99.90
7206;DHT22;3644;53.480;10.004;2023-05-10T00:14:15;15.20;99.90
7206;DHT22;3644;53.480;10.004;2023-05-10T00:16:41;15.30;99.90
7206;DHT22;3644;53.480;10.004;2023-05-10T00:19:06;15.30;99.90
7206;DHT22;3644;53.480;10.004;2023-05-10T00:21:32;15.30;99.90
7206;DHT22;3644;53.480;10.004;2023-05-10T00:23:59;15.20;99.90
7206;DHT22;3644;53.480;10.004;2023-05-10T00:26:24;15.20;99.90
7206;DHT22;3644;53.480;10.004;2023-05-10T00:28:50;15.30;99.90
7206;DHT22;3644;53.480;10.004;2023-05-10T00:31:16;15.10;99.90
7206;DHT22;3644;53.480;10.004;2023-05-10T00:33:41;15.20;99.90
7206;DHT22;3644;53.480;10.004;2023-05-10T00:36:07;15.10;99.90
7206;DHT22;3644;53.480;10.004;2023-05-10T00:38:33;15.10;99.90
7206;DHT22;3644;53.480;10.004;2023-05-10T00:40:59;15.10;99.90
7206;DHT22;3644;53.480;10.004;2023-05-10T00:43:24;15.00;99.90
7206;DHT22;3644;53.480;10.004;2023-05-10T00:45:50;15.00;99.90
7206;DHT22;3644;53.480;10.004;2023-05-10T00:48:15;15.00;99.90
7206;DHT22;3644;53.480;10.004;2023-05-10T00:50:41;14.90;99.90
7206;DHT22;3644;53.480;10.004;2023-05-10T00:53:07;15.00;99.90
7206;DHT22;3644;53.480;10.004;2023-05-10T00:55:33;15.00;99.90
7206;DHT22;3644;53.480;10.004;2023-05-10T00:57:59;14.80;99.90
7206;DHT22;3644;53.480;10.004;2023-05-10T01:00:25;14.70;99.90
7206;DHT22;3644;53.480;10.004;2023-05-10T01:02:52;14.70;99.90
7206;DHT22;3644;53.480;10.004;2023-05-10T01:05:18;14.70;99.90
7206;DHT22;3644;53.480;10.004;2023-05-10T01:07:44;14.70;99.90
7206;DHT22;3644;53.480;10.004;2023-05-10T01:10:09;14.80;99.90
7206;DHT22;3644;53.480;10.004;2023-05-10T01:12:38;14.60;99.90
7206;DHT22;3644;53.480;10.004;2023-05-10T01:15:08;14.50;99.90
7206;DHT22;3644;53.480;10.004;2023-05-10T01:17:38;14.50;99.90
7206;DHT22;3644;53.480;10.004;2023-05-10T01:20:06;14.60;99.90
7206;DHT22;3644;53.480;10.004;2023-05-10T01:23:06;14.70;99.90
7206;DHT22;3644;53.480;10.004;2023-05-10T01:28:50;14.40;99.90
7206;DHT22;3644;53.480;10.004;2023-05-10T01:31:39;14.40;99.90
7206;DHT22;3644;53.480;10.004;2023-05-10T01:34:23;14.40;99.90
7206;DHT22;3644;53.480;10.004;2023-05-10T01:37:02;14.50;99.90
7206;DHT22;3644;53.480;10.004;2023-05-10T01:39:49;14.50;99.90
7206;DHT22;3644;53.480;10.004;2023-05-10T01:42:28;14.40;99.90
7206;DHT22;3644;53.480;10.004;2023-05-10T01:45:16;14.30;99.90
7206;DHT22;3644;53.480;10.004;2023-05-10T01:47:46;14.40;99.90
7206;DHT22;3644;53.480;10.004;2023-05-10T01:50:19;14.30;99.90
7206;DHT22;3644;53.480;10.004;2023-05-10T01:52:53;14.40;99.90
7206;DHT22;3644;53.480;10.004;2023-05-10T01:55:21;14.40;99.90
7206;DHT22;3644;53.480;10.004;2023-05-10T01:57:52;14.40;99.90
7206;DHT22;3644;53.480;10.004;2023-05-10T02:00:20;14.40;99.90
7206;DHT22;3644;53.480;10.004;2023-05-10T02:02:47;14.30;99.90
7206;DHT22;3644;53.480;10.004;2023-05-10T02:05:15;14.40;99.90
7206;DHT22;3644;53.480;10.004;2023-05-10T02:07:42;14.40;99.90
7206;DHT22;3644;53.480;10.004;2023-05-10T02:10:09;14.20;99.90
7206;DHT22;3644;53.480;10.004;2023-05-10T02:12:36;14.30;99.90
7206;DHT22;3644;53.480;10.004;2023-05-10T02:15:04;14.30;99.90
7206;DHT22;3644;53.480;10.004;2023-05-10T02:17:31;14.10;99.90
7206;DHT22;3644;53.480;10.004;2023-05-10T02:19:59;14.10;99.90
7206;DHT22;3644;53.480;10.004;2023-05-10T02:22:26;14.10;99.90
7206;DHT22;3644;53.480;10.004;2023-05-10T02:24:54;14.00;99.90
7206;DHT22;3644;53.480;10.004;2023-05-10T02:27:22;14.10;99.90
7206;DHT22;3644;53.480;10.004;2023-05-10T02:29:48;14.00;99.90
7206;DHT22;3644;53.480;10.004;2023-05-10T02:32:15;14.00;99.90
7206;DHT22;3644;53.480;10.004;2023-05-10T02:34:42;14.00;99.90
7206;DHT22;3644;53.480;10.004;2023-05-10T02:37:07;14.00;99.90
7206;DHT22;3644;53.480;10.004;2023-05-10T02:39:34;13.90;99.90
7206;DHT22;3644;53.480;10.004;2023-05-10T02:42:00;14.00;99.90
7206;DHT22;3644;53.480;10.004;2023-05-10T02:44:28;14.00;99.90
7206;DHT22;3644;53.480;10.004;2023-05-10T02:46:56;13.90;99.90
7206;DHT22;3644;53.480;10.004;2023-05-10T02:49:22;13.90;99.90
7206;DHT22;3644;53.480;10.004;2023-05-10T02:51:51;13.80;99.90
7206;DHT22;3644;53.480;10.004;2023-05-10T02:54:24;13.90;99.90
7206;DHT22;3644;53.480;10.004;2023-05-10T02:56:52;13.80;99.90
7206;DHT22;3644;53.480;10.004;2023-05-10T02:59:19;13.90;99.90
7206;DHT22;3644;53.480;10.004;2023-05-10T03:01:44;13.80;99.90
7206;DHT22;3644;53.480;10.004;2023-05-10T03:04:10;13.70;99.90
7206;DHT22;3644;53.480;10.004;2023-05-10T03:06:36;13.80;99.90
7206;DHT22;3644;53.480;10.004;2023-05-10T03:09:02;13.70;99.90
7206;DHT22;3644;53.480;10.004;2023-05-10T03:11:39;13.80;99.90
7206;DHT22;3644;53.480;10.004;2023-05-10T03:14:21;13.80;99.90
7206;DHT22;3644;53.480;10.004;2023-05-10T03:17:39;13.80;99.90
7206;DHT22;3644;53.480;10.004;2023-05-10T03:19:55;13.80;99.90
7206;DHT22;3644;53.480;10.004;2023-05-10T03:22:26;13.80;99.90
7206;DHT22;3644;53.480;10.004;2023-05-10T03:24:56;13.80;99.90
7206;DHT22;3644;53.480;10.004;2023-05-10T03:27:26;13.80;99.90
7206;DHT22;3644;53.480;10.004;2023-05-10T03:29:53;13.90;99.90
7206;DHT22;3644;53.480;10.004;2023-05-10T03:32:19;13.80;99.90
7206;DHT22;3644;53.480;10.004;2023-05-10T03:34:44;13.80;99.90
7206;DHT22;3644;53.480;10.004;2023-05-10T03:37:10;13.80;99.90
7206;DHT22;3644;53.480;10.004;2023-05-10T03:39:36;13.70;99.90
7206;DHT22;3644;53.480;10.004;2023-05-10T03:42:02;13.80;99.90
7206;DHT22;3644;53.480;10.004;2023-05-10T03:44:27;13.90;99.90
7206;DHT22;3644;53.480;10.004;2023-05-10T03:46:53;13.90;99.90
7206;DHT22;3644;53.480;10.004;2023-05-10T03:49:18;13.90;99.90
7206;DHT22;3644;53.480;10.004;2023-05-10T03:51:44;13.80;99.90
7206;DHT22;3644;53.480;10.004;2023-05-10T03:54:09;13.80;99.90
7206;DHT22;3644;53.480;10.004;2023-05-10T03:56:35;13.80;99.90
7206;DHT22;3644;53.480;10.004;2023-05-10T03:59:00;13.70;99.90
7206;DHT22;3644;53.480;10.004;2023-05-10T04:01:26;13.80;99.90
7206;DHT22;3644;53.480;10.004;2023-05-10T04:03:51;13.80;99.90
7206;DHT22;3644;53.480;10.004;2023-05-10T04:06:17;13.80;99.90
7206;DHT22;3644;53.480;10.004;2023-05-10T04:08:42;13.80;99.90
7206;DHT22;3644;53.480;10.004;2023-05-10T04:11:09;13.90;99.90
7206;DHT22;3644;53.480;10.004;2023-05-10T04:13:35;13.90;99.90
7206;DHT22;3644;53.480;10.004;2023-05-10T04:16:01;14.00;99.90
7206;DHT22;3644;53.480;10.004;2023-05-10T04:18:26;14.10;99.90
7206;DHT22;3644;53.480;10.004;2023-05-10T04:20:52;14.00;99.90
7206;DHT22;3644;53.480;10.004;2023-05-10T04:23:17;14.00;99.90
7206;DHT22;3644;53.480;10.004;2023-05-10T04:25:43;14.00;99.90
7206;DHT22;3644;53.480;10.004;2023-05-10T04:28:08;13.90;99.90
7206;DHT22;3644;53.480;10.004;2023-05-10T04:30:34;14.00;99.90
7206;DHT22;3644;53.480;10.004;2023-05-10T04:33:00;14.10;99.90
7206;DHT22;3644;53.480;10.004;2023-05-10T04:35:27;14.10;99.90
7206;DHT22;3644;53.480;10.004;2023-05-10T04:37:53;14.10;99.90
7206;DHT22;3644;53.480;10.004;2023-05-10T04:40:19;14.00;99.90
7206;DHT22;3644;53.480;10.004;2023-05-10T04:42:45;14.10;99.90
7206;DHT22;3644;53.480;10.004;2023-05-10T04:45:10;14.30;99.90
7206;DHT22;3644;53.480;10.004;2023-05-10T04:47:36;14.40;99.90
7206;DHT22;3644;53.480;10.004;2023-05-10T04:50:05;14.40;99.90
7206;DHT22;3644;53.480;10.004;2023-05-10T04:52:31;14.40;99.90
7206;DHT22;3644;53.480;10.004;2023-05-10T04:54:56;14.60;99.90
7206;DHT22;3644;53.480;10.004;2023-05-10T04:57:22;14.60;99.90
7206;DHT22;3644;53.480;10.004;2023-05-10T04:59:47;14.50;99.90
7206;DHT22;3644;53.480;10.004;2023-05-10T05:02:13;14.70;99.90
7206;DHT22;3644;53.480;10.004;2023-05-10T05:04:39;14.70;99.90
7206;DHT22;3644;53.480;10.004;2023-05-10T05:07:04;14.80;99.90
7206;DHT22;3644;53.480;10.004;2023-05-10T05:09:30;14.80;99.90
7206;DHT22;3644;53.480;10.004;2023-05-10T05:11:57;15.00;99.90
7206;DHT22;3644;53.480;10.004;2023-05-10T05:14:23;15.00;99.90
7206;DHT22;3644;53.480;10.004;2023-05-10T05:16:51;15.10;99.90
7206;DHT22;3644;53.480;10.004;2023-05-10T05:19:16;15.10;99.90
7206;DHT22;3644;53.480;10.004;2023-05-10T05:21:42;15.20;99.90
7206;DHT22;3644;53.480;10.004;2023-05-10T05:24:07;15.30;99.90
7206;DHT22;3644;53.480;10.004;2023-05-10T05:26:33;15.30;99.90
7206;DHT22;3644;53.480;10.004;2023-05-10T05:28:58;15.30;99.90
7206;DHT22;3644;53.480;10.004;2023-05-10T05:31:24;15.40;99.90
7206;DHT22;3644;53.480;10.004;2023-05-10T05:33:49;15.50;99.90
7206;DHT22;3644;53.480;10.004;2023-05-10T05:36:15;15.60;99.90
7206;DHT22;3644;53.480;10.004;2023-05-10T05:38:40;15.60;99.90
7206;DHT22;3644;53.480;10.004;2023-05-10T05:41:06;15.60;99.90
7206;DHT22;3644;53.480;10.004;2023-05-10T05:43:31;15.70;99.90
7206;DHT22;3644;53.480;10.004;2023-05-10T05:45:57;15.80;99.90
7206;DHT22;3644;53.480;10.004;2023-05-10T05:48:23;15.80;99.90
7206;DHT22;3644;53.480;10.004;2023-05-10T05:50:49;15.80;99.90
7206;DHT22;3644;53.480;10.004;2023-05-10T05:53:14;15.80;99.90
7206;DHT22;3644;53.480;10.004;2023-05-10T05:55:50;15.80;99.90
7206;DHT22;3644;53.480;10.004;2023-05-10T05:58:15;15.90;99.90
7206;DHT22;3644;53.480;10.004;2023-05-10T06:00:41;15.90;99.90
7206;DHT22;3644;53.480;10.004;2023-05-10T06:03:07;16.10;99.90
7206;DHT22;3644;53.480;10.004;2023-05-10T06:05:32;16.20;99.90
7206;DHT22;3644;53.480;10.004;2023-05-10T06:07:59;16.40;99.90
7206;DHT22;3644;53.480;10.004;2023-05-10T06:10:25;16.50;99.90
7206;DHT22;3644;53.480;10.004;2023-05-10T06:12:50;16.60;99.90
7206;DHT22;3644;53.480;10.004;2023-05-10T06:15:16;16.50;99.90
7206;DHT22;3644;53.480;10.004;2023-05-10T06:17:42;16.60;99.90
7206;DHT22;3644;53.480;10.004;2023-05-10T06:20:08;16.70;99.90
7206;DHT22;3644;53.480;10.004;2023-05-10T06:22:34;16.60;99.90
7206;DHT22;3644;53.480;10.004;2023-05-10T06:25:00;16.80;99.90
7206;DHT22;3644;53.480;10.004;2023-05-10T06:27:25;16.90;99.90
7206;DHT22;3644;53.480;10.004;2023-05-10T06:29:51;17.10;99.90
7206;DHT22;3644;53.480;10.004;2023-05-10T06:32:16;17.10;99.90
7206;DHT22;3644;53.480;10.004;2023-05-10T06:34:42;17.30;99.90
7206;DHT22;3644;53.480;10.004;2023-05-10T06:37:08;17.40;99.90
7206;DHT22;3644;53.480;10.004;2023-05-10T06:39:34;17.50;99.90
7206;DHT22;3644;53.480;10.004;2023-05-10T06:41:59;17.60;99.90
7206;DHT22;3644;53.480;10.004;2023-05-10T06:44:27;17.70;99.90
7206;DHT22;3644;53.480;10.004;2023-05-10T06:46:52;17.90;99.90
7206;DHT22;3644;53.480;10.004;2023-05-10T06:49:18;17.90;99.90
7206;DHT22;3644;53.480;10.004;2023-05-10T06:51:44;17.70;99.90
7206;DHT22;3644;53.480;10.004;2023-05-10T06:54:10;17.90;99.90
7206;DHT22;3644;53.480;10.004;2023-05-10T06:56:35;17.90;99.90
7206;DHT22;3644;53.480;10.004;2023-05-10T06:59:01;17.90;99.90
7206;DHT22;3644;53.480;10.004;2023-05-10T07:01:26;18.10;99.90
7206;DHT22;3644;53.480;10.004;2023-05-10T07:03:52;18.40;99.90
7206;DHT22;3644;53.480;10.004;2023-05-10T07:06:18;18.60;99.90
7206;DHT22;3644;53.480;10.004;2023-05-10T07:08:43;18.70;99.90
7206;DHT22;3644;53.480;10.004;2023-05-10T07:11:09;18.80;99.90
7206;DHT22;3644;53.480;10.004;2023-05-10T07:13:35;18.90;99.90
7206;DHT22;3644;53.480;10.004;2023-05-10T07:16:01;18.90;99.90
7206;DHT22;3644;53.480;10.004;2023-05-10T07:18:28;18.90;99.90
7206;DHT22;3644;53.480;10.004;2023-05-10T07:20:54;18.90;99.90
7206;DHT22;3644;53.480;10.004;2023-05-10T07:23:19;19.00;99.90
7206;DHT22;3644;53.480;10.004;2023-05-10T07:25:49;19.00;99.90
7206;DHT22;3644;53.480;10.004;2023-05-10T07:28:15;19.10;99.90
7206;DHT22;3644;53.480;10.004;2023-05-10T07:30:42;19.30;99.90
7206;DHT22;3644;53.480;10.004;2023-05-10T07:33:09;19.20;99.90
7206;DHT22;3644;53.480;10.004;2023-05-10T07:35:35;19.00;99.90
7206;DHT22;3644;53.480;10.004;2023-05-10T07:38:00;19.00;99.90
7206;DHT22;3644;53.480;10.004;2023-05-10T07:40:26;19.10;99.90
7206;DHT22;3644;53.480;10.004;2023-05-10T07:42:51;19.20;99.90
7206;DHT22;3644;53.480;10.004;2023-05-10T07:45:17;19.20;99.90
7206;DHT22;3644;53.480;10.004;2023-05-10T07:47:43;19.30;99.90
7206;DHT22;3644;53.480;10.004;2023-05-10T07:50:08;19.10;99.90
7206;DHT22;3644;53.480;10.004;2023-05-10T07:52:34;19.20;99.90
7206;DHT22;3644;53.480;10.004;2023-05-10T07:54:59;19.40;99.90
7206;DHT22;3644;53.480;10.004;2023-05-10T07:57:25;19.50;99.90
7206;DHT22;3644;53.480;10.004;2023-05-10T07:59:50;19.60;99.90
7206;DHT22;3644;53.480;10.004;2023-05-10T08:02:16;19.60;99.90
7206;DHT22;3644;53.480;10.004;2023-05-10T08:04:41;19.70;99.90
7206;DHT22;3644;53.480;10.004;2023-05-10T08:07:07;19.70;99.90
7206;DHT22;3644;53.480;10.004;2023-05-10T08:09:33;19.70;99.90
7206;DHT22;3644;53.480;10.004;2023-05-10T08:11:58;19.70;99.90
7206;DHT22;3644;53.480;10.004;2023-05-10T08:14:27;19.70;99.90
7206;DHT22;3644;53.480;10.004;2023-05-10T08:16:52;19.70;99.90
7206;DHT22;3644;53.480;10.004;2023-05-10T08:19:18;19.70;99.90
7206;DHT22;3644;53.480;10.004;2023-05-10T08:21:45;19.90;99.90
7206;DHT22;3644;53.480;10.004;2023-05-10T08:24:11;19.80;99.90
7206;DHT22;3644;53.480;10.004;2023-05-10T08:26:36;20.10;99.90
7206;DHT22;3644;53.480;10.004;2023-05-10T08:29:02;20.10;99.90
7206;DHT22;3644;53.480;10.004;2023-05-10T08:31:28;20.10;99.90
7206;DHT22;3644;53.480;10.004;2023-05-10T08:33:53;20.30;99.90
7206;DHT22;3644;53.480;10.004;2023-05-10T08:36:19;20.20;99.90
7206;DHT22;3644;53.480;10.004;2023-05-10T08:38:50;20.40;99.90
7206;DHT22;3644;53.480;10.004;2023-05-10T08:41:18;20.40;99.90
7206;DHT22;3644;53.480;10.004;2023-05-10T08:43:46;20.60;99.90
7206;DHT22;3644;53.480;10.004;2023-05-10T08:46:15;20.70;99.90
7206;DHT22;3644;53.480;10.004;2023-05-10T08:48:42;20.70;99.90
7206;DHT22;3644;53.480;10.004;2023-05-10T08:51:09;20.80;99.90
7206;DHT22;3644;53.480;10.004;2023-05-10T08:53:36;20.80;99.90
7206;DHT22;3644;53.480;10.004;2023-05-10T08:56:02;20.90;99.90
7206;DHT22;3644;53.480;10.004;2023-05-10T08:58:28;20.90;99.90
7206;DHT22;3644;53.480;10.004;2023-05-10T09:00:54;21.00;99.90
7206;DHT22;3644;53.480;10.004;2023-05-10T09:03:21;21.00;99.90
7206;DHT22;3644;53.480;10.004;2023-05-10T09:05:47;21.10;99.90
7206;DHT22;3644;53.480;10.004;2023-05-10T09:08:14;21.20;99.90
7206;DHT22;3644;53.480;10.004;2023-05-10T09:10:45;21.20;99.90
7206;DHT22;3644;53.480;10.004;2023-05-10T09:13:14;21.20;99.90
7206;DHT22;3644;53.480;10.004;2023-05-10T09:15:40;21.10;99.90
7206;DHT22;3644;53.480;10.004;2023-05-10T09:18:06;20.90;99.90
7206;DHT22;3644;53.480;10.004;2023-05-10T09:20:31;20.80;99.90
7206;DHT22;3644;53.480;10.004;2023-05-10T09:22:57;20.70;99.90
7206;DHT22;3644;53.480;10.004;2023-05-10T09:25:22;20.60;99.90
7206;DHT22;3644;53.480;10.004;2023-05-10T09:27:48;20.60;99.90
7206;DHT22;3644;53.480;10.004;2023-05-10T09:30:27;20.50;99.90
7206;DHT22;3644;53.480;10.004;2023-05-10T09:32:54;20.50;99.90
7206;DHT22;3644;53.480;10.004;2023-05-10T09:35:21;20.10;99.90
7206;DHT22;3644;53.480;10.004;2023-05-10T09:37:49;20.00;99.90
7206;DHT22;3644;53.480;10.004;2023-05-10T09:40:20;19.70;99.90
7206;DHT22;3644;53.480;10.004;2023-05-10T09:43:03;19.60;99.90
7206;DHT22;3644;53.480;10.004;2023-05-10T09:45:33;19.60;99.90
7206;DHT22;3644;53.480;10.004;2023-05-10T09:48:00;19.50;99.90
7206;DHT22;3644;53.480;10.004;2023-05-10T09:50:27;19.40;99.90
7206;DHT22;3644;53.480;10.004;2023-05-10T09:53:01;19.30;99.90
7206;DHT22;3644;53.480;10.004;2023-05-10T09:55:41;19.30;99.90
7206;DHT22;3644;53.480;10.004;2023-05-10T09:58:09;19.20;99.90
7206;DHT22;3644;53.480;10.004;2023-05-10T10:00:43;19.00;99.90
7206;DHT22;3644;53.480;10.004;2023-05-10T10:03:14;19.00;99.90
7206;DHT22;3644;53.480;10.004;2023-05-10T10:05:41;19.00;99.90
7206;DHT22;3644;53.480;10.004;2023-05-10T10:08:08;18.80;99.90
7206;DHT22;3644;53.480;10.004;2023-05-10T10:10:34;18.70;99.90
7206;DHT22;3644;53.480;10.004;2023-05-10T10:13:00;18.70;99.90
7206;DHT22;3644;53.480;10.004;2023-05-10T10:15:26;18.70;99.90
7206;DHT22;3644;53.480;10.004;2023-05-10T10:17:52;18.50;99.90
7206;DHT22;3644;53.480;10.004;2023-05-10T10:20:19;18.50;99.90
7206;DHT22;3644;53.480;10.004;2023-05-10T10:22:45;18.40;99.90
7206;DHT22;3644;53.480;10.004;2023-05-10T10:25:14;18.50;99.90
7206;DHT22;3644;53.480;10.004;2023-05-10T10:28:05;18.50;99.90
7206;DHT22;3644;53.480;10.004;2023-05-10T10:30:42;18.60;99.90
7206;DHT22;3644;53.480;10.004;2023-05-10T10:36:00;18.60;99.90
7206;DHT22;3644;53.480;10.004;2023-05-10T10:38:25;18.60;99.90
7206;DHT22;3644;53.480;10.004;2023-05-10T10:41:10;18.60;99.90
7206;DHT22;3644;53.480;10.004;2023-05-10T10:43:36;18.60;99.90
7206;DHT22;3644;53.480;10.004;2023-05-10T10:46:17;18.60;99.90
7206;DHT22;3644;53.480;10.004;2023-05-10T10:49:09;18.60;99.90
7206;DHT22;3644;53.480;10.004;2023-05-10T10:51:38;18.50;99.90
7206;DHT22;3644;53.480;10.004;2023-05-10T10:54:10;18.60;99.90
7206;DHT22;3644;53.480;10.004;2023-05-10T10:56:36;18.70;99.90
7206;DHT22;3644;53.480;10.004;2023-05-10T10:59:02;18.70;99.90
7206;DHT22;3644;53.480;10.004;2023-05-10T11:01:33;18.80;99.90
7206;DHT22;3644;53.480;10.004;2023-05-10T11:08:57;19.00;99.90
7206;DHT22;3644;53.480;10.004;2023-05-10T11:11:23;19.10;99.90
7206;DHT22;3644;53.480;10.004;2023-05-10T11:13:49;19.30;99.90
7206;DHT22;3644;53.480;10.004;2023-05-10T11:16:22;19.50;99.90
7206;DHT22;3644;53.480;10.004;2023-05-10T11:19:04;19.50;99.90
7206;DHT22;3644;53.480;10.004;2023-05-10T11:21:30;19.40;99.90
7206;DHT22;3644;53.480;10.004;2023-05-10T11:23:58;19.30;99.90
7206;DHT22;3644;53.480;10.004;2023-05-10T11:26:25;19.20;99.90
7206;DHT22;3644;53.480;10.004;2023-05-10T11:28:53;19.10;99.90
7206;DHT22;3644;53.480;10.004;2023-05-10T11:31:22;19.00;99.90
7206;DHT22;3644;53.480;10.004;2023-05-10T11:33:52;18.80;99.90
7206;DHT22;3644;53.480;10.004;2023-05-10T11:36:20;18.80;99.90
7206;DHT22;3644;53.480;10.004;2023-05-10T11:38:46;18.70;99.90
7206;DHT22;3644;53.480;10.004;2023-05-10T11:41:13;18.60;99.90
7206;DHT22;3644;53.480;10.004;2023-05-10T11:43:39;18.50;99.90
7206;DHT22;3644;53.480;10.004;2023-05-10T11:46:12;18.50;99.90
7206;DHT22;3644;53.480;10.004;2023-05-10T11:48:41;18.60;99.90
7206;DHT22;3644;53.480;10.004;2023-05-10T11:51:08;18.60;99.90
7206;DHT22;3644;53.480;10.004;2023-05-10T11:53:34;18.50;99.90
7206;DHT22;3644;53.480;10.004;2023-05-10T11:56:09;18.60;99.90
7206;DHT22;3644;53.480;10.004;2023-05-10T11:58:36;18.60;99.90
7206;DHT22;3644;53.480;10.004;2023-05-10T12:01:03;18.50;99.90
7206;DHT22;3644;53.480;10.004;2023-05-10T12:03:30;18.60;99.90
7206;DHT22;3644;53.480;10.004;2023-05-10T12:05:56;18.60;99.90
7206;DHT22;3644;53.480;10.004;2023-05-10T12:08:26;18.70;99.90
7206;DHT22;3644;53.480;10.004;2023-05-10T12:10:53;19.00;99.90
7206;DHT22;3644;53.480;10.004;2023-05-10T12:13:28;19.00;99.90
7206;DHT22;3644;53.480;10.004;2023-05-10T12:15:57;19.10;99.90
7206;DHT22;3644;53.480;10.004;2023-05-10T12:18:24;19.10;99.90
7206;DHT22;3644;53.480;10.004;2023-05-10T12:20:52;19.10;99.90
7206;DHT22;3644;53.480;10.004;2023-05-10T12:23:20;19.20;99.90
7206;DHT22;3644;53.480;10.004;2023-05-10T12:25:45;19.20;99.90
7206;DHT22;3644;53.480;10.004;2023-05-10T12:28:11;19.20;99.90
7206;DHT22;3644;53.480;10.004;2023-05-10T12:30:37;19.40;99.90
7206;DHT22;3644;53.480;10.004;2023-05-10T12:33:11;19.50;99.90
7206;DHT22;3644;53.480;10.004;2023-05-10T12:35:45;19.50;99.90
7206;DHT22;3644;53.480;10.004;2023-05-10T12:38:34;19.50;99.90
7206;DHT22;3644;53.480;10.004;2023-05-10T12:41:01;19.40;99.90
7206;DHT22;3644;53.480;10.004;2023-05-10T12:43:26;19.30;99.90
7206;DHT22;3644;53.480;10.004;2023-05-10T12:45:52;19.30;99.90
7206;DHT22;3644;53.480;10.004;2023-05-10T12:48:18;19.60;99.90
7206;DHT22;3644;53.480;10.004;2023-05-10T12:50:45;19.70;99.90
7206;DHT22;3644;53.480;10.004;2023-05-10T12:53:10;19.70;99.90
7206;DHT22;3644;53.480;10.004;2023-05-10T12:55:36;19.70;99.90
7206;DHT22;3644;53.480;10.004;2023-05-10T12:58:01;19.80;99.90
7206;DHT22;3644;53.480;10.004;2023-05-10T13:00:27;19.90;99.90
7206;DHT22;3644;53.480;10.004;2023-05-10T13:02:52;19.80;99.90
7206;DHT22;3644;53.480;10.004;2023-05-10T13:05:18;19.90;99.90
7206;DHT22;3644;53.480;10.004;2023-05-10T13:07:44;20.00;99.90
7206;DHT22;3644;53.480;10.004;2023-05-10T13:10:09;20.00;99.90
7206;DHT22;3644;53.480;10.004;2023-05-10T13:12:35;20.10;99.90
7206;DHT22;3644;53.480;10.004;2023-05-10T13:15:02;20.20;99.90
7206;DHT22;3644;53.480;10.004;2023-05-10T13:17:28;20.40;99.90
7206;DHT22;3644;53.480;10.004;2023-05-10T13:19:54;20.30;99.90
7206;DHT22;3644;53.480;10.004;2023-05-10T13:22:20;20.40;99.90
7206;DHT22;3644;53.480;10.004;2023-05-10T13:24:45;20.40;99.90
7206;DHT22;3644;53.480;10.004;2023-05-10T13:27:10;20.50;99.90
7206;DHT22;3644;53.480;10.004;2023-05-10T13:29:36;20.50;99.90
7206;DHT22;3644;53.480;10.004;2023-05-10T13:32:01;20.60;99.90
7206;DHT22;3644;53.480;10.004;2023-05-10T13:34:27;20.60;99.90
7206;DHT22;3644;53.480;10.004;2023-05-10T13:36:53;20.60;99.90
7206;DHT22;3644;53.480;10.004;2023-05-10T13:39:20;20.50;99.90
7206;DHT22;3644;53.480;10.004;2023-05-10T13:41:45;20.40;99.90
7206;DHT22;3644;53.480;10.004;2023-05-10T13:44:12;20.50;99.90
7206;DHT22;3644;53.480;10.004;2023-05-10T13:46:39;20.50;99.90
7206;DHT22;3644;53.480;10.004;2023-05-10T13:49:04;20.60;99.90
7206;DHT22;3644;53.480;10.004;2023-05-10T13:51:30;20.60;99.90
7206;DHT22;3644;53.480;10.004;2023-05-10T13:53:57;20.80;99.90
7206;DHT22;3644;53.480;10.004;2023-05-10T13:56:23;20.80;99.90
7206;DHT22;3644;53.480;10.004;2023-05-10T13:58:48;20.70;99.90
7206;DHT22;3644;53.480;10.004;2023-05-10T14:01:14;20.80;99.90
7206;DHT22;3644;53.480;10.004;2023-05-10T14:03:39;20.80;99.90
7206;DHT22;3644;53.480;10.004;2023-05-10T14:06:05;20.90;99.90
7206;DHT22;3644;53.480;10.004;2023-05-10T14:08:32;21.00;99.90
7206;DHT22;3644;53.480;10.004;2023-05-10T14:10:58;21.00;99.90
7206;DHT22;3644;53.480;10.004;2023-05-10T14:13:23;21.10;99.90
7206;DHT22;3644;53.480;10.004;2023-05-10T14:15:50;21.10;99.90
7206;DHT22;3644;53.480;10.004;2023-05-10T14:18:15;21.30;99.90
7206;DHT22;3644;53.480;10.004;2023-05-10T14:20:41;21.20;99.90
7206;DHT22;3644;53.480;10.004;2023-05-10T14:23:06;21.30;99.90
7206;DHT22;3644;53.480;10.004;2023-05-10T14:25:32;21.20;99.90
7206;DHT22;3644;53.480;10.004;2023-05-10T14:27:58;21.10;99.90
7206;DHT22;3644;53.480;10.004;2023-05-10T14:30:24;21.10;99.90
7206;DHT22;3644;53.480;10.004;2023-05-10T14:32:49;21.10;99.90
7206;DHT22;3644;53.480;10.004;2023-05-10T14:35:15;21.10;99.90
7206;DHT22;3644;53.480;10.004;2023-05-10T14:37:41;21.00;99.90
7206;DHT22;3644;53.480;10.004;2023-05-10T14:40:06;21.10;99.90
7206;DHT22;3644;53.480;10.004;2023-05-10T14:42:32;21.00;99.90
7206;DHT22;3644;53.480;10.004;2023-05-10T14:44:58;21.00;99.90
7206;DHT22;3644;53.480;10.004;2023-05-10T14:47:23;21.00;99.90
7206;DHT22;3644;53.480;10.004;2023-05-10T14:49:49;20.90;99.90
7206;DHT22;3644;53.480;10.004;2023-05-10T14:52:14;21.10;99.90
7206;DHT22;3644;53.480;10.004;2023-05-10T14:54:40;20.90;99.90
7206;DHT22;3644;53.480;10.004;2023-05-10T14:57:06;21.00;99.90
7206;DHT22;3644;53.480;10.004;2023-05-10T14:59:32;21.00;99.90
7206;DHT22;3644;53.480;10.004;2023-05-10T15:01:57;20.90;99.90
7206;DHT22;3644;53.480;10.004;2023-05-10T15:04:23;21.00;99.90
7206;DHT22;3644;53.480;10.004;2023-05-10T15:06:48;21.30;99.90
7206;DHT22;3644;53.480;10.004;2023-05-10T15:09:14;21.30;99.90
7206;DHT22;3644;53.480;10.004;2023-05-10T15:11:40;21.40;99.90
7206;DHT22;3644;53.480;10.004;2023-05-10T15:14:06;21.30;99.90
7206;DHT22;3644;53.480;10.004;2023-05-10T15:16:31;21.30;99.90
7206;DHT22;3644;53.480;10.004;2023-05-10T15:18:57;21.20;99.90
7206;DHT22;3644;53.480;10.004;2023-05-10T15:21:22;21.30;99.90
7206;DHT22;3644;53.480;10.004;2023-05-10T15:23:48;21.20;99.90
7206;DHT22;3644;53.480;10.004;2023-05-10T15:26:14;21.20;99.90
7206;DHT22;3644;53.480;10.004;2023-05-10T15:28:39;21.20;99.90
7206;DHT22;3644;53.480;10.004;2023-05-10T15:31:05;21.00;99.90
7206;DHT22;3644;53.480;10.004;2023-05-10T15:33:30;21.10;99.90
7206;DHT22;3644;53.480;10.004;2023-05-10T15:35:56;21.00;99.90
7206;DHT22;3644;53.480;10.004;2023-05-10T15:38:21;20.80;99.90
7206;DHT22;3644;53.480;10.004;2023-05-10T15:40:47;20.70;99.90
7206;DHT22;3644;53.480;10.004;2023-05-10T15:43:13;20.50;99.90
7206;DHT22;3644;53.480;10.004;2023-05-10T15:45:39;20.50;99.90
7206;DHT22;3644;53.480;10.004;2023-05-10T15:48:04;20.40;99.90
7206;DHT22;3644;53.480;10.004;2023-05-10T15:50:30;20.30;99.90
7206;DHT22;3644;53.480;10.004;2023-05-10T15:52:55;20.20;99.90
7206;DHT22;3644;53.480;10.004;2023-05-10T15:55:21;20.00;99.90
7206;DHT22;3644;53.480;10.004;2023-05-10T15:57:47;20.00;99.90